sensor_id;sensor_type;location;lat;lon;timestamp;P1;durP1;ratioP1;P2;durP2;ratioP2
63286;SDS011;49410;55.708;37.522;2022-11-15T00:01:34;2.03;;;0.88;;
63286;SDS011;49410;55.708;37.522;2022-11-15T00:04:02;7.00;;;1.10;;
63286;SDS011;49410;55.708;37.522;2022-11-15T00:06:29;3.33;;;1.00;;
63286;SDS011;49410;55.708;37.522;2022-11-15T00:08:54;3.03;;;1.17;;
63286;SDS011;49410;55.708;37.522;2022-11-15T00:11:22;8.32;;;1.33;;
63286;SDS011;49410;55.708;37.522;2022-11-15T00:13:48;4.40;;;1.50;;
63286;SDS011;49410;55.708;37.522;2022-11-15T00:16:13;4.25;;;1.80;;
63286;SDS011;49410;55.708;37.522;2022-11-15T00:18:39;4.07;;;1.58;;
63286;SDS011;49410;55.708;37.522;2022-11-15T00:21:05;5.63;;;1.70;;
63286;SDS011;49410;55.708;37.522;2022-11-15T00:23:34;2.25;;;1.00;;
63286;SDS011;49410;55.708;37.522;2022-11-15T00:26:00;5.28;;;1.70;;
63286;SDS011;49410;55.708;37.522;2022-11-15T00:28:26;3.85;;;1.40;;
63286;SDS011;49410;55.708;37.522;2022-11-15T00:30:51;5.28;;;1.20;;
63286;SDS011;49410;55.708;37.522;2022-11-15T00:33:17;6.22;;;1.65;;
63286;SDS011;49410;55.708;37.522;2022-11-15T00:35:43;6.15;;;1.38;;
63286;SDS011;49410;55.708;37.522;2022-11-15T00:38:09;4.30;;;1.40;;
63286;SDS011;49410;55.708;37.522;2022-11-15T00:40:34;4.38;;;1.70;;
63286;SDS011;49410;55.708;37.522;2022-11-15T00:43:00;3.92;;;0.98;;
63286;SDS011;49410;55.708;37.522;2022-11-15T00:45:25;3.63;;;1.33;;
63286;SDS011;49410;55.708;37.522;2022-11-15T00:47:51;3.28;;;1.30;;
63286;SDS011;49410;55.708;37.522;2022-11-15T00:50:18;5.05;;;1.10;;
63286;SDS011;49410;55.708;37.522;2022-11-15T00:52:43;3.42;;;1.40;;
63286;SDS011;49410;55.708;37.522;2022-11-15T00:55:13;6.18;;;1.65;;
63286;SDS011;49410;55.708;37.522;2022-11-15T00:57:40;4.05;;;0.98;;
63286;SDS011;49410;55.708;37.522;2022-11-15T01:00:06;4.20;;;1.48;;
63286;SDS011;49410;55.708;37.522;2022-11-15T01:02:32;3.05;;;1.15;;
63286;SDS011;49410;55.708;37.522;2022-11-15T01:04:57;4.25;;;1.40;;
63286;SDS011;49410;55.708;37.522;2022-11-15T01:07:23;4.90;;;1.38;;
63286;SDS011;49410;55.708;37.522;2022-11-15T01:09:48;5.28;;;1.50;;
63286;SDS011;49410;55.708;37.522;2022-11-15T01:12:14;3.90;;;1.13;;
63286;SDS011;49410;55.708;37.522;2022-11-15T01:14:40;6.82;;;1.45;;
63286;SDS011;49410;55.708;37.522;2022-11-15T01:17:05;3.65;;;1.10;;
63286;SDS011;49410;55.708;37.522;2022-11-15T01:19:31;4.13;;;1.20;;
63286;SDS011;49410;55.708;37.522;2022-11-15T01:21:56;2.70;;;1.20;;
63286;SDS011;49410;55.708;37.522;2022-11-15T01:24:22;4.28;;;1.40;;
63286;SDS011;49410;55.708;37.522;2022-11-15T01:26:47;2.88;;;1.27;;
63286;SDS011;49410;55.708;37.522;2022-11-15T01:29:12;3.95;;;1.23;;
63286;SDS011;49410;55.708;37.522;2022-11-15T01:31:38;4.03;;;1.10;;
63286;SDS011;49410;55.708;37.522;2022-11-15T01:34:03;3.40;;;1.08;;
63286;SDS011;49410;55.708;37.522;2022-11-15T01:36:29;5.68;;;1.65;;
63286;SDS011;49410;55.708;37.522;2022-11-15T01:38:55;4.00;;;1.20;;
63286;SDS011;49410;55.708;37.522;2022-11-15T01:41:23;4.43;;;0.93;;
63286;SDS011;49410;55.708;37.522;2022-11-15T01:43:54;8.73;;;1.30;;
63286;SDS011;49410;55.708;37.522;2022-11-15T01:46:32;4.32;;;1.08;;
63286;SDS011;49410;55.708;37.522;2022-11-15T01:49:11;3.20;;;1.35;;
63286;SDS011;49410;55.708;37.522;2022-11-15T01:51:39;7.25;;;1.30;;
63286;SDS011;49410;55.708;37.522;2022-11-15T01:54:06;3.67;;;1.45;;
63286;SDS011;49410;55.708;37.522;2022-11-15T01:56:40;5.25;;;1.17;;
63286;SDS011;49410;55.708;37.522;2022-11-15T01:59:10;4.82;;;0.90;;
63286;SDS011;49410;55.708;37.522;2022-11-15T02:01:36;4.43;;;1.10;;
63286;SDS011;49410;55.708;37.522;2022-11-15T02:04:22;2.33;;;0.93;;
63286;SDS011;49410;55.708;37.522;2022-11-15T02:06:50;3.03;;;1.10;;
63286;SDS011;49410;55.708;37.522;2022-11-15T02:09:16;4.47;;;1.38;;
63286;SDS011;49410;55.708;37.522;2022-11-15T02:11:42;3.35;;;1.45;;
63286;SDS011;49410;55.708;37.522;2022-11-15T02:14:09;5.38;;;1.25;;
63286;SDS011;49410;55.708;37.522;2022-11-15T02:19:47;5.65;;;1.10;;
63286;SDS011;49410;55.708;37.522;2022-11-15T02:25:39;2.83;;;1.27;;
63286;SDS011;49410;55.708;37.522;2022-11-15T02:36:40;1.63;;;0.80;;
63286;SDS011;49410;55.708;37.522;2022-11-15T02:39:20;3.63;;;1.52;;
63286;SDS011;49410;55.708;37.522;2022-11-15T02:41:48;3.45;;;1.10;;
63286;SDS011;49410;55.708;37.522;2022-11-15T02:44:24;5.05;;;1.13;;
63286;SDS011;49410;55.708;37.522;2022-11-15T02:46:59;3.75;;;1.00;;
63286;SDS011;49410;55.708;37.522;2022-11-15T02:49:37;4.60;;;1.02;;
63286;SDS011;49410;55.708;37.522;2022-11-15T02:52:06;2.75;;;0.80;;
63286;SDS011;49410;55.708;37.522;2022-11-15T02:54:32;5.38;;;1.45;;
63286;SDS011;49410;55.708;37.522;2022-11-15T02:57:06;4.90;;;1.13;;
63286;SDS011;49410;55.708;37.522;2022-11-15T02:59:49;4.47;;;1.42;;
63286;SDS011;49410;55.708;37.522;2022-11-15T03:02:41;3.85;;;1.52;;
63286;SDS011;49410;55.708;37.522;2022-11-15T03:11:10;3.53;;;1.40;;
63286;SDS011;49410;55.708;37.522;2022-11-15T03:13:40;8.52;;;1.33;;
63286;SDS011;49410;55.708;37.522;2022-11-15T03:16:20;5.60;;;1.10;;
63286;SDS011;49410;55.708;37.522;2022-11-15T03:18:59;4.72;;;1.17;;
63286;SDS011;49410;55.708;37.522;2022-11-15T03:21:29;3.17;;;1.17;;
63286;SDS011;49410;55.708;37.522;2022-11-15T03:23:59;3.92;;;1.42;;
63286;SDS011;49410;55.708;37.522;2022-11-15T03:26:30;5.10;;;1.30;;
63286;SDS011;49410;55.708;37.522;2022-11-15T03:29:05;5.03;;;1.52;;
63286;SDS011;49410;55.708;37.522;2022-11-15T03:31:54;6.35;;;1.20;;
63286;SDS011;49410;55.708;37.522;2022-11-15T03:36:58;3.95;;;1.27;;
63286;SDS011;49410;55.708;37.522;2022-11-15T03:39:24;3.78;;;1.30;;
63286;SDS011;49410;55.708;37.522;2022-11-15T03:50:15;4.28;;;1.50;;
63286;SDS011;49410;55.708;37.522;2022-11-15T03:52:44;2.80;;;0.95;;
63286;SDS011;49410;55.708;37.522;2022-11-15T03:55:12;5.85;;;1.23;;
63286;SDS011;49410;55.708;37.522;2022-11-15T03:57:40;5.03;;;1.23;;
63286;SDS011;49410;55.708;37.522;2022-11-15T04:00:06;3.15;;;1.20;;
63286;SDS011;49410;55.708;37.522;2022-11-15T04:02:32;3.50;;;1.40;;
63286;SDS011;49410;55.708;37.522;2022-11-15T04:04:57;4.70;;;1.38;;
63286;SDS011;49410;55.708;37.522;2022-11-15T04:07:23;7.53;;;1.73;;
63286;SDS011;49410;55.708;37.522;2022-11-15T04:09:48;3.00;;;1.10;;
63286;SDS011;49410;55.708;37.522;2022-11-15T04:12:31;3.55;;;1.20;;
63286;SDS011;49410;55.708;37.522;2022-11-15T04:15:01;6.28;;;1.30;;
63286;SDS011;49410;55.708;37.522;2022-11-15T04:17:35;3.72;;;1.20;;
63286;SDS011;49410;55.708;37.522;2022-11-15T04:20:15;2.50;;;0.95;;
63286;SDS011;49410;55.708;37.522;2022-11-15T04:22:59;4.65;;;1.60;;
63286;SDS011;49410;55.708;37.522;2022-11-15T04:25:45;3.33;;;1.20;;
63286;SDS011;49410;55.708;37.522;2022-11-15T04:28:14;7.45;;;1.50;;
63286;SDS011;49410;55.708;37.522;2022-11-15T04:30:39;8.68;;;1.50;;
63286;SDS011;49410;55.708;37.522;2022-11-15T04:33:05;6.50;;;1.80;;
63286;SDS011;49410;55.708;37.522;2022-11-15T04:35:31;5.47;;;1.38;;
63286;SDS011;49410;55.708;37.522;2022-11-15T04:37:57;5.72;;;1.60;;
63286;SDS011;49410;55.708;37.522;2022-11-15T04:40:23;4.55;;;1.70;;
63286;SDS011;49410;55.708;37.522;2022-11-15T04:42:48;2.63;;;1.00;;
63286;SDS011;49410;55.708;37.522;2022-11-15T04:45:14;2.95;;;1.17;;
63286;SDS011;49410;55.708;37.522;2022-11-15T04:47:40;8.30;;;1.60;;
63286;SDS011;49410;55.708;37.522;2022-11-15T04:50:09;4.07;;;1.48;;
63286;SDS011;49410;55.708;37.522;2022-11-15T04:52:37;7.22;;;1.70;;
63286;SDS011;49410;55.708;37.522;2022-11-15T04:55:03;4.93;;;1.45;;
63286;SDS011;49410;55.708;37.522;2022-11-15T04:57:29;4.10;;;1.48;;
63286;SDS011;49410;55.708;37.522;2022-11-15T04:59:54;4.72;;;1.40;;
63286;SDS011;49410;55.708;37.522;2022-11-15T05:02:20;11.80;;;1.70;;
63286;SDS011;49410;55.708;37.522;2022-11-15T05:04:45;4.57;;;1.55;;
63286;SDS011;49410;55.708;37.522;2022-11-15T05:07:11;2.85;;;1.00;;
63286;SDS011;49410;55.708;37.522;2022-11-15T05:09:36;4.15;;;1.70;;
63286;SDS011;49410;55.708;37.522;2022-11-15T05:12:02;4.82;;;1.50;;
63286;SDS011;49410;55.708;37.522;2022-11-15T05:14:27;4.78;;;1.73;;
63286;SDS011;49410;55.708;37.522;2022-11-15T05:16:54;4.35;;;1.30;;
63286;SDS011;49410;55.708;37.522;2022-11-15T05:19:19;5.25;;;1.30;;
63286;SDS011;49410;55.708;37.522;2022-11-15T05:21:45;4.70;;;1.63;;
63286;SDS011;49410;55.708;37.522;2022-11-15T05:24:10;4.53;;;1.40;;
63286;SDS011;49410;55.708;37.522;2022-11-15T05:26:36;5.03;;;1.60;;
63286;SDS011;49410;55.708;37.522;2022-11-15T05:29:02;8.65;;;2.03;;
63286;SDS011;49410;55.708;37.522;2022-11-15T05:31:27;5.57;;;1.42;;
63286;SDS011;49410;55.708;37.522;2022-11-15T05:33:53;8.60;;;1.70;;
63286;SDS011;49410;55.708;37.522;2022-11-15T05:36:27;6.43;;;1.23;;
63286;SDS011;49410;55.708;37.522;2022-11-15T05:39:10;5.57;;;1.30;;
63286;SDS011;49410;55.708;37.522;2022-11-15T05:44:02;4.25;;;1.70;;
63286;SDS011;49410;55.708;37.522;2022-11-15T05:46:32;5.60;;;2.00;;
63286;SDS011;49410;55.708;37.522;2022-11-15T05:48:59;4.20;;;1.65;;
63286;SDS011;49410;55.708;37.522;2022-11-15T05:51:25;13.48;;;1.77;;
63286;SDS011;49410;55.708;37.522;2022-11-15T05:53:54;6.97;;;1.77;;
63286;SDS011;49410;55.708;37.522;2022-11-15T05:56:22;5.47;;;1.63;;
63286;SDS011;49410;55.708;37.522;2022-11-15T05:58:47;6.32;;;2.08;;
63286;SDS011;49410;55.708;37.522;2022-11-15T06:01:13;10.82;;;2.47;;
63286;SDS011;49410;55.708;37.522;2022-11-15T06:03:38;6.03;;;1.40;;
63286;SDS011;49410;55.708;37.522;2022-11-15T06:06:04;6.72;;;1.65;;
63286;SDS011;49410;55.708;37.522;2022-11-15T06:08:30;7.93;;;2.00;;
63286;SDS011;49410;55.708;37.522;2022-11-15T06:10:55;5.25;;;1.45;;
63286;SDS011;49410;55.708;37.522;2022-11-15T06:13:21;12.00;;;1.80;;
63286;SDS011;49410;55.708;37.522;2022-11-15T06:15:46;6.97;;;1.92;;
63286;SDS011;49410;55.708;37.522;2022-11-15T06:18:12;4.95;;;1.63;;
63286;SDS011;49410;55.708;37.522;2022-11-15T06:20:37;6.00;;;1.90;;
63286;SDS011;49410;55.708;37.522;2022-11-15T06:23:03;4.95;;;1.58;;
63286;SDS011;49410;55.708;37.522;2022-11-15T06:25:30;4.90;;;1.73;;
63286;SDS011;49410;55.708;37.522;2022-11-15T06:27:56;6.38;;;1.80;;
63286;SDS011;49410;55.708;37.522;2022-11-15T06:30:24;6.30;;;1.98;;
63286;SDS011;49410;55.708;37.522;2022-11-15T06:32:51;4.40;;;1.50;;
63286;SDS011;49410;55.708;37.522;2022-11-15T06:35:18;7.78;;;2.13;;
63286;SDS011;49410;55.708;37.522;2022-11-15T06:37:43;12.38;;;2.83;;
63286;SDS011;49410;55.708;37.522;2022-11-15T06:40:09;5.88;;;1.77;;
63286;SDS011;49410;55.708;37.522;2022-11-15T06:42:36;10.55;;;1.63;;
63286;SDS011;49410;55.708;37.522;2022-11-15T06:45:01;10.65;;;1.70;;
63286;SDS011;49410;55.708;37.522;2022-11-15T06:47:27;5.57;;;1.90;;
63286;SDS011;49410;55.708;37.522;2022-11-15T06:49:53;5.38;;;2.15;;
63286;SDS011;49410;55.708;37.522;2022-11-15T06:52:18;6.30;;;2.13;;
63286;SDS011;49410;55.708;37.522;2022-11-15T06:54:44;10.45;;;2.15;;
63286;SDS011;49410;55.708;37.522;2022-11-15T06:57:10;6.88;;;2.10;;
63286;SDS011;49410;55.708;37.522;2022-11-15T06:59:35;6.00;;;2.28;;
63286;SDS011;49410;55.708;37.522;2022-11-15T07:02:01;8.10;;;1.92;;
63286;SDS011;49410;55.708;37.522;2022-11-15T07:04:27;8.27;;;1.70;;
63286;SDS011;49410;55.708;37.522;2022-11-15T07:06:52;10.13;;;2.13;;
63286;SDS011;49410;55.708;37.522;2022-11-15T07:09:18;7.55;;;1.42;;
63286;SDS011;49410;55.708;37.522;2022-11-15T07:11:43;9.10;;;2.28;;
63286;SDS011;49410;55.708;37.522;2022-11-15T07:14:09;6.28;;;2.20;;
63286;SDS011;49410;55.708;37.522;2022-11-15T07:16:35;8.65;;;2.65;;
63286;SDS011;49410;55.708;37.522;2022-11-15T07:19:01;5.50;;;1.70;;
63286;SDS011;49410;55.708;37.522;2022-11-15T07:21:27;15.05;;;2.60;;
63286;SDS011;49410;55.708;37.522;2022-11-15T07:23:52;4.85;;;1.92;;
63286;SDS011;49410;55.708;37.522;2022-11-15T07:26:18;5.32;;;1.98;;
63286;SDS011;49410;55.708;37.522;2022-11-15T07:28:43;5.63;;;2.05;;
63286;SDS011;49410;55.708;37.522;2022-11-15T07:31:08;6.38;;;2.10;;
63286;SDS011;49410;55.708;37.522;2022-11-15T07:33:34;10.27;;;2.10;;
63286;SDS011;49410;55.708;37.522;2022-11-15T07:36:01;6.65;;;2.38;;
63286;SDS011;49410;55.708;37.522;2022-11-15T07:38:28;5.97;;;1.80;;
63286;SDS011;49410;55.708;37.522;2022-11-15T07:40:58;5.20;;;1.63;;
63286;SDS011;49410;55.708;37.522;2022-11-15T07:43:26;9.82;;;2.15;;
63286;SDS011;49410;55.708;37.522;2022-11-15T07:45:55;8.52;;;1.90;;
63286;SDS011;49410;55.708;37.522;2022-11-15T07:48:22;6.70;;;2.30;;
63286;SDS011;49410;55.708;37.522;2022-11-15T07:50:47;11.05;;;2.22;;
63286;SDS011;49410;55.708;37.522;2022-11-15T07:53:13;6.30;;;2.10;;
63286;SDS011;49410;55.708;37.522;2022-11-15T07:55:39;10.13;;;2.22;;
63286;SDS011;49410;55.708;37.522;2022-11-15T07:58:07;7.20;;;1.63;;
63286;SDS011;49410;55.708;37.522;2022-11-15T08:00:36;8.88;;;2.60;;
63286;SDS011;49410;55.708;37.522;2022-11-15T08:03:06;7.50;;;1.70;;
63286;SDS011;49410;55.708;37.522;2022-11-15T08:05:34;11.05;;;3.22;;
63286;SDS011;49410;55.708;37.522;2022-11-15T08:08:00;10.15;;;3.03;;
63286;SDS011;49410;55.708;37.522;2022-11-15T08:10:27;11.02;;;3.17;;
63286;SDS011;49410;55.708;37.522;2022-11-15T08:13:03;9.50;;;1.95;;
63286;SDS011;49410;55.708;37.522;2022-11-15T08:15:30;6.55;;;1.80;;
63286;SDS011;49410;55.708;37.522;2022-11-15T08:18:00;9.77;;;2.50;;
63286;SDS011;49410;55.708;37.522;2022-11-15T08:20:29;14.63;;;2.47;;
63286;SDS011;49410;55.708;37.522;2022-11-15T08:22:56;8.20;;;2.85;;
63286;SDS011;49410;55.708;37.522;2022-11-15T08:25:25;11.20;;;2.00;;
63286;SDS011;49410;55.708;37.522;2022-11-15T08:27:53;9.52;;;2.45;;
63286;SDS011;49410;55.708;37.522;2022-11-15T08:30:20;6.45;;;1.90;;
63286;SDS011;49410;55.708;37.522;2022-11-15T08:32:46;6.25;;;2.10;;
63286;SDS011;49410;55.708;37.522;2022-11-15T08:35:12;8.80;;;2.47;;
63286;SDS011;49410;55.708;37.522;2022-11-15T08:37:37;7.53;;;2.92;;
63286;SDS011;49410;55.708;37.522;2022-11-15T08:42:57;13.18;;;2.13;;
63286;SDS011;49410;55.708;37.522;2022-11-15T08:45:24;5.43;;;2.10;;
63286;SDS011;49410;55.708;37.522;2022-11-15T08:47:49;7.75;;;3.50;;
63286;SDS011;49410;55.708;37.522;2022-11-15T08:50:15;7.25;;;2.58;;
63286;SDS011;49410;55.708;37.522;2022-11-15T08:52:41;6.20;;;2.55;;
63286;SDS011;49410;55.708;37.522;2022-11-15T08:55:07;8.20;;;2.70;;
63286;SDS011;49410;55.708;37.522;2022-11-15T08:57:33;6.03;;;2.00;;
63286;SDS011;49410;55.708;37.522;2022-11-15T08:59:58;10.77;;;2.03;;
63286;SDS011;49410;55.708;37.522;2022-11-15T09:02:23;12.00;;;2.65;;
63286;SDS011;49410;55.708;37.522;2022-11-15T09:04:49;9.95;;;2.70;;
63286;SDS011;49410;55.708;37.522;2022-11-15T09:07:14;9.48;;;3.20;;
63286;SDS011;49410;55.708;37.522;2022-11-15T09:09:41;5.53;;;2.50;;
63286;SDS011;49410;55.708;37.522;2022-11-15T09:12:07;6.72;;;2.20;;
63286;SDS011;49410;55.708;37.522;2022-11-15T09:14:33;8.57;;;2.45;;
63286;SDS011;49410;55.708;37.522;2022-11-15T09:16:58;7.45;;;2.55;;
63286;SDS011;49410;55.708;37.522;2022-11-15T09:19:24;8.40;;;2.25;;
63286;SDS011;49410;55.708;37.522;2022-11-15T09:21:50;6.43;;;2.05;;
63286;SDS011;49410;55.708;37.522;2022-11-15T09:24:15;9.55;;;2.33;;
63286;SDS011;49410;55.708;37.522;2022-11-15T09:26:42;5.30;;;1.80;;
63286;SDS011;49410;55.708;37.522;2022-11-15T09:29:08;5.10;;;1.50;;
63286;SDS011;49410;55.708;37.522;2022-11-15T09:31:33;5.88;;;1.80;;
63286;SDS011;49410;55.708;37.522;2022-11-15T09:33:59;11.98;;;2.83;;
63286;SDS011;49410;55.708;37.522;2022-11-15T09:36:25;5.90;;;1.70;;
63286;SDS011;49410;55.708;37.522;2022-11-15T09:38:50;6.93;;;2.15;;
63286;SDS011;49410;55.708;37.522;2022-11-15T09:41:38;6.20;;;2.22;;
63286;SDS011;49410;55.708;37.522;2022-11-15T09:44:29;7.68;;;2.10;;
63286;SDS011;49410;55.708;37.522;2022-11-15T09:50:11;7.43;;;2.55;;
63286;SDS011;49410;55.708;37.522;2022-11-15T09:52:41;8.63;;;2.00;;
63286;SDS011;49410;55.708;37.522;2022-11-15T09:55:10;9.60;;;2.17;;
63286;SDS011;49410;55.708;37.522;2022-11-15T09:57:49;6.03;;;1.85;;
63286;SDS011;49410;55.708;37.522;2022-11-15T10:00:35;11.85;;;1.80;;
63286;SDS011;49410;55.708;37.522;2022-11-15T10:03:12;5.15;;;1.70;;
63286;SDS011;49410;55.708;37.522;2022-11-15T10:05:48;6.30;;;1.58;;
63286;SDS011;49410;55.708;37.522;2022-11-15T10:11:01;5.45;;;1.73;;
63286;SDS011;49410;55.708;37.522;2022-11-15T10:13:32;8.10;;;1.77;;
63286;SDS011;49410;55.708;37.522;2022-11-15T10:17:05;8.73;;;2.53;;
63286;SDS011;49410;55.708;37.522;2022-11-15T10:24:25;7.07;;;2.25;;
63286;SDS011;49410;55.708;37.522;2022-11-15T10:26:56;7.35;;;1.70;;
63286;SDS011;49410;55.708;37.522;2022-11-15T10:29:22;7.25;;;2.10;;
63286;SDS011;49410;55.708;37.522;2022-11-15T10:31:49;4.97;;;1.42;;
63286;SDS011;49410;55.708;37.522;2022-11-15T10:34:19;5.55;;;2.05;;
63286;SDS011;49410;55.708;37.522;2022-11-15T10:36:58;6.45;;;2.28;;
63286;SDS011;49410;55.708;37.522;2022-11-15T10:39:26;6.72;;;2.15;;
63286;SDS011;49410;55.708;37.522;2022-11-15T10:41:52;5.65;;;1.90;;
63286;SDS011;49410;55.708;37.522;2022-11-15T10:44:20;14.00;;;2.45;;
63286;SDS011;49410;55.708;37.522;2022-11-15T10:46:50;13.18;;;2.80;;
63286;SDS011;49410;55.708;37.522;2022-11-15T10:49:33;5.78;;;1.85;;
63286;SDS011;49410;55.708;37.522;2022-11-15T10:52:01;5.90;;;1.88;;
63286;SDS011;49410;55.708;37.522;2022-11-15T10:54:27;6.20;;;1.80;;
63286;SDS011;49410;55.708;37.522;2022-11-15T10:56:57;5.60;;;2.10;;
63286;SDS011;49410;55.708;37.522;2022-11-15T10:59:31;14.02;;;2.60;;
63286;SDS011;49410;55.708;37.522;2022-11-15T11:02:00;9.23;;;2.38;;
63286;SDS011;49410;55.708;37.522;2022-11-15T11:04:26;8.60;;;2.72;;
63286;SDS011;49410;55.708;37.522;2022-11-15T11:06:52;10.77;;;2.80;;
63286;SDS011;49410;55.708;37.522;2022-11-15T11:11:53;10.80;;;2.20;;
63286;SDS011;49410;55.708;37.522;2022-11-15T11:14:24;7.10;;;2.55;;
63286;SDS011;49410;55.708;37.522;2022-11-15T11:36:11;5.90;;;2.20;;
63286;SDS011;49410;55.708;37.522;2022-11-15T11:39:21;7.45;;;2.47;;
63286;SDS011;49410;55.708;37.522;2022-11-15T11:47:24;12.70;;;1.95;;
63286;SDS011;49410;55.708;37.522;2022-11-15T11:50:04;13.88;;;2.33;;
63286;SDS011;49410;55.708;37.522;2022-11-15T11:52:39;6.45;;;2.20;;
63286;SDS011;49410;55.708;37.522;2022-11-15T11:55:18;7.82;;;2.22;;
63286;SDS011;49410;55.708;37.522;2022-11-15T12:00:43;6.93;;;1.95;;
63286;SDS011;49410;55.708;37.522;2022-11-15T12:03:14;10.40;;;2.10;;
63286;SDS011;49410;55.708;37.522;2022-11-15T12:05:54;7.68;;;2.38;;
63286;SDS011;49410;55.708;37.522;2022-11-15T12:14:16;7.18;;;2.28;;
63286;SDS011;49410;55.708;37.522;2022-11-15T12:16:50;8.35;;;2.00;;
63286;SDS011;49410;55.708;37.522;2022-11-15T12:19:16;11.70;;;2.63;;
63286;SDS011;49410;55.708;37.522;2022-11-15T12:24:28;13.98;;;2.75;;
63286;SDS011;49410;55.708;37.522;2022-11-15T12:27:01;13.98;;;2.55;;
63286;SDS011;49410;55.708;37.522;2022-11-15T12:29:45;6.47;;;2.05;;
63286;SDS011;49410;55.708;37.522;2022-11-15T12:34:53;5.60;;;2.00;;
63286;SDS011;49410;55.708;37.522;2022-11-15T12:45:26;7.25;;;2.42;;
63286;SDS011;49410;55.708;37.522;2022-11-15T13:04:08;8.32;;;2.20;;
63286;SDS011;49410;55.708;37.522;2022-11-15T13:14:56;7.72;;;2.22;;
63286;SDS011;49410;55.708;37.522;2022-11-15T13:22:43;7.38;;;2.50;;
63286;SDS011;49410;55.708;37.522;2022-11-15T13:30:54;6.43;;;2.20;;
63286;SDS011;49410;55.708;37.522;2022-11-15T13:35:56;11.32;;;2.42;;
63286;SDS011;49410;55.708;37.522;2022-11-15T13:40:49;13.68;;;2.90;;
63286;SDS011;49410;55.708;37.522;2022-11-15T13:46:05;7.40;;;2.53;;
63286;SDS011;49410;55.708;37.522;2022-11-15T13:48:52;13.05;;;2.67;;
63286;SDS011;49410;55.708;37.522;2022-11-15T13:52:09;8.55;;;2.50;;
63286;SDS011;49410;55.708;37.522;2022-11-15T13:54:36;7.85;;;2.25;;
63286;SDS011;49410;55.708;37.522;2022-11-15T13:57:10;10.50;;;2.95;;
63286;SDS011;49410;55.708;37.522;2022-11-15T13:59:50;6.47;;;2.42;;
63286;SDS011;49410;55.708;37.522;2022-11-15T14:02:29;6.97;;;2.67;;
63286;SDS011;49410;55.708;37.522;2022-11-15T14:05:16;8.32;;;2.38;;
63286;SDS011;49410;55.708;37.522;2022-11-15T14:10:33;10.57;;;2.70;;
63286;SDS011;49410;55.708;37.522;2022-11-15T14:13:01;7.38;;;2.65;;
63286;SDS011;49410;55.708;37.522;2022-11-15T14:15:31;13.52;;;2.90;;
63286;SDS011;49410;55.708;37.522;2022-11-15T14:17:59;7.40;;;2.95;;
63286;SDS011;49410;55.708;37.522;2022-11-15T14:20:27;9.07;;;3.70;;
63286;SDS011;49410;55.708;37.522;2022-11-15T14:22:59;10.13;;;3.13;;
63286;SDS011;49410;55.708;37.522;2022-11-15T14:25:27;8.68;;;3.17;;
63286;SDS011;49410;55.708;37.522;2022-11-15T14:28:11;10.73;;;3.08;;
63286;SDS011;49410;55.708;37.522;2022-11-15T14:30:42;11.80;;;3.25;;
63286;SDS011;49410;55.708;37.522;2022-11-15T14:33:18;8.35;;;3.28;;
63286;SDS011;49410;55.708;37.522;2022-11-15T14:35:53;8.73;;;3.17;;
63286;SDS011;49410;55.708;37.522;2022-11-15T14:38:20;9.77;;;2.95;;
63286;SDS011;49410;55.708;37.522;2022-11-15T14:40:46;8.27;;;3.58;;
63286;SDS011;49410;55.708;37.522;2022-11-15T14:43:12;10.57;;;3.75;;
63286;SDS011;49410;55.708;37.522;2022-11-15T14:45:38;10.85;;;4.07;;
63286;SDS011;49410;55.708;37.522;2022-11-15T14:48:04;13.02;;;3.97;;
63286;SDS011;49410;55.708;37.522;2022-11-15T14:50:29;12.77;;;4.25;;
63286;SDS011;49410;55.708;37.522;2022-11-15T14:52:57;13.23;;;4.20;;
63286;SDS011;49410;55.708;37.522;2022-11-15T14:57:53;11.18;;;4.78;;
63286;SDS011;49410;55.708;37.522;2022-11-15T15:00:23;13.48;;;4.68;;
63286;SDS011;49410;55.708;37.522;2022-11-15T15:02:50;10.48;;;3.90;;
63286;SDS011;49410;55.708;37.522;2022-11-15T15:05:18;8.85;;;3.10;;
63286;SDS011;49410;55.708;37.522;2022-11-15T15:08:10;6.40;;;2.20;;
63286;SDS011;49410;55.708;37.522;2022-11-15T15:10:37;8.23;;;2.40;;
63286;SDS011;49410;55.708;37.522;2022-11-15T15:13:05;8.40;;;3.17;;
63286;SDS011;49410;55.708;37.522;2022-11-15T15:15:36;11.65;;;3.20;;
63286;SDS011;49410;55.708;37.522;2022-11-15T15:18:03;9.30;;;2.78;;
63286;SDS011;49410;55.708;37.522;2022-11-15T15:20:30;10.98;;;3.33;;
63286;SDS011;49410;55.708;37.522;2022-11-15T15:22:57;7.32;;;2.85;;
63286;SDS011;49410;55.708;37.522;2022-11-15T15:25:32;11.45;;;3.20;;
63286;SDS011;49410;55.708;37.522;2022-11-15T15:27:59;7.45;;;2.90;;
63286;SDS011;49410;55.708;37.522;2022-11-15T15:30:26;13.43;;;4.35;;
63286;SDS011;49410;55.708;37.522;2022-11-15T15:32:53;7.65;;;2.75;;
63286;SDS011;49410;55.708;37.522;2022-11-15T15:35:19;8.32;;;3.22;;
63286;SDS011;49410;55.708;37.522;2022-11-15T15:37:46;8.93;;;2.80;;
63286;SDS011;49410;55.708;37.522;2022-11-15T15:40:14;10.68;;;3.90;;
63286;SDS011;49410;55.708;37.522;2022-11-15T15:42:45;10.00;;;3.17;;
63286;SDS011;49410;55.708;37.522;2022-11-15T15:45:11;8.75;;;3.00;;
63286;SDS011;49410;55.708;37.522;2022-11-15T15:47:37;8.98;;;4.10;;
63286;SDS011;49410;55.708;37.522;2022-11-15T15:50:04;9.38;;;3.63;;
63286;SDS011;49410;55.708;37.522;2022-11-15T15:52:45;10.63;;;3.75;;
63286;SDS011;49410;55.708;37.522;2022-11-15T15:55:10;13.93;;;4.40;;
63286;SDS011;49410;55.708;37.522;2022-11-15T15:57:36;13.25;;;4.18;;
63286;SDS011;49410;55.708;37.522;2022-11-15T16:00:02;13.15;;;4.75;;
63286;SDS011;49410;55.708;37.522;2022-11-15T16:02:28;10.75;;;4.40;;
63286;SDS011;49410;55.708;37.522;2022-11-15T16:04:54;13.35;;;4.70;;
63286;SDS011;49410;55.708;37.522;2022-11-15T16:07:22;13.38;;;4.97;;
63286;SDS011;49410;55.708;37.522;2022-11-15T16:09:53;12.00;;;5.10;;
63286;SDS011;49410;55.708;37.522;2022-11-15T16:12:24;14.73;;;5.45;;
63286;SDS011;49410;55.708;37.522;2022-11-15T16:14:51;13.82;;;5.20;;
63286;SDS011;49410;55.708;37.522;2022-11-15T16:17:17;11.88;;;5.20;;
63286;SDS011;49410;55.708;37.522;2022-11-15T16:19:46;13.32;;;5.03;;
63286;SDS011;49410;55.708;37.522;2022-11-15T16:22:11;14.43;;;5.60;;
63286;SDS011;49410;55.708;37.522;2022-11-15T16:24:37;10.70;;;4.82;;
63286;SDS011;49410;55.708;37.522;2022-11-15T16:27:03;13.60;;;5.43;;
63286;SDS011;49410;55.708;37.522;2022-11-15T16:29:49;12.38;;;5.05;;
63286;SDS011;49410;55.708;37.522;2022-11-15T16:32:15;11.82;;;4.65;;
63286;SDS011;49410;55.708;37.522;2022-11-15T16:34:41;10.43;;;4.60;;
63286;SDS011;49410;55.708;37.522;2022-11-15T16:37:21;12.35;;;4.78;;
63286;SDS011;49410;55.708;37.522;2022-11-15T16:39:47;10.07;;;4.25;;
63286;SDS011;49410;55.708;37.522;2022-11-15T16:42:13;15.38;;;4.97;;
63286;SDS011;49410;55.708;37.522;2022-11-15T16:44:38;14.93;;;5.00;;
63286;SDS011;49410;55.708;37.522;2022-11-15T16:47:04;10.98;;;3.88;;
63286;SDS011;49410;55.708;37.522;2022-11-15T16:49:29;13.20;;;4.80;;
63286;SDS011;49410;55.708;37.522;2022-11-15T16:51:55;14.07;;;4.32;;
63286;SDS011;49410;55.708;37.522;2022-11-15T16:54:20;11.82;;;4.78;;
63286;SDS011;49410;55.708;37.522;2022-11-15T16:56:46;12.30;;;4.38;;
63286;SDS011;49410;55.708;37.522;2022-11-15T16:59:15;10.13;;;4.70;;
63286;SDS011;49410;55.708;37.522;2022-11-15T17:01:42;12.07;;;4.40;;
63286;SDS011;49410;55.708;37.522;2022-11-15T17:04:15;12.20;;;3.42;;
63286;SDS011;49410;55.708;37.522;2022-11-15T17:06:43;10.18;;;4.18;;
63286;SDS011;49410;55.708;37.522;2022-11-15T17:09:14;8.57;;;3.78;;